createdAt,value
2018-05-06T00:01:53.337Z,6.83
2018-05-06T00:04:20.962Z,6.63
2018-05-06T00:06:48.499Z,6.73
2018-05-06T00:09:16.075Z,6.40
2018-05-06T00:11:43.595Z,6.60
2018-05-06T00:14:11.891Z,6.63
2018-05-06T00:16:40.174Z,6.70
2018-05-06T00:19:07.690Z,6.67
2018-05-06T00:21:35.216Z,6.90
2018-05-06T00:24:02.756Z,6.67
2018-05-06T00:26:30.312Z,6.60
2018-05-06T00:28:57.854Z,6.50
2018-05-06T00:31:26.139Z,6.53
2018-05-06T00:33:54.416Z,7.20
2018-05-06T00:36:22.724Z,6.50
2018-05-06T00:38:50.238Z,6.83
2018-05-06T00:41:18.528Z,6.83
2018-05-06T00:43:46.822Z,6.70
2018-05-06T00:46:14.394Z,7.20
2018-05-06T00:48:41.914Z,6.87
2018-05-06T00:51:10.224Z,7.30
2018-05-06T00:53:37.795Z,6.27
2018-05-06T00:56:05.358Z,6.83
2018-05-06T00:58:32.888Z,6.73
2018-05-06T01:01:01.167Z,6.83
2018-05-06T01:03:29.465Z,6.23
2018-05-06T01:05:56.995Z,6.70
2018-05-06T01:08:25.284Z,6.10
2018-05-06T01:10:53.555Z,6.70
2018-05-06T01:13:21.950Z,6.30
2018-05-06T01:15:49.459Z,6.73
2018-05-06T01:18:16.965Z,6.50
2018-05-06T01:20:45.260Z,6.63
2018-05-06T01:23:12.766Z,6.30
2018-05-06T01:25:40.373Z,7.53
2018-05-06T01:28:07.906Z,6.67
2018-05-06T01:30:36.193Z,7.07
2018-05-06T01:33:04.470Z,7.03
2018-05-06T01:35:32.772Z,6.70
2018-05-06T01:38:00.329Z,6.70
2018-05-06T01:40:27.843Z,6.20
2018-05-06T01:42:55.463Z,6.47
2018-05-06T01:45:23.010Z,6.47
2018-05-06T01:47:50.521Z,6.43
2018-05-06T01:50:18.117Z,6.60
2018-05-06T01:52:46.513Z,6.50
2018-05-06T01:55:14.020Z,6.53
2018-05-06T01:57:41.545Z,6.67
2018-05-06T02:00:09.072Z,6.47
2018-05-06T02:02:36.600Z,6.40
2018-05-06T02:05:04.904Z,6.50
2018-05-06T02:07:33.207Z,6.63
2018-05-06T02:10:00.737Z,6.93
2018-05-06T02:12:29.030Z,6.67
2018-05-06T02:14:57.307Z,7.17
2018-05-06T02:17:25.591Z,6.37
2018-05-06T02:19:53.160Z,6.70
2018-05-06T02:22:20.721Z,6.73
2018-05-06T02:24:48.289Z,6.40
2018-05-06T02:27:15.819Z,6.87
2018-05-06T02:29:44.095Z,6.20
2018-05-06T02:32:12.420Z,5.80
2018-05-06T02:34:39.958Z,6.50
2018-05-06T02:37:07.485Z,5.73
2018-05-06T02:39:35.793Z,6.93
2018-05-06T02:42:03.325Z,6.30
2018-05-06T02:44:31.635Z,7.07
2018-05-06T02:46:59.187Z,6.30
2018-05-06T02:49:26.724Z,6.90
2018-05-06T02:51:55.029Z,6.47
2018-05-06T02:54:22.583Z,6.47
2018-05-06T02:56:50.981Z,6.50
2018-05-06T02:59:18.483Z,6.40
2018-05-06T03:01:45.999Z,6.20
2018-05-06T03:04:13.536Z,7.03
2018-05-06T03:06:41.925Z,6.50
2018-05-06T03:09:09.497Z,6.70
2018-05-06T03:11:37.023Z,6.97
2018-05-06T03:14:05.303Z,6.20
2018-05-06T03:16:33.609Z,6.67
2018-05-06T03:19:01.157Z,6.47
2018-05-06T03:21:28.685Z,6.83
2018-05-06T03:23:56.279Z,6.60
2018-05-06T03:26:24.681Z,6.13
2018-05-06T03:28:52.195Z,6.60
2018-05-06T03:31:19.801Z,7.23
2018-05-06T03:33:47.327Z,7.07
2018-05-06T03:36:15.625Z,6.40
2018-05-06T03:38:43.215Z,6.60
2018-05-06T03:41:11.594Z,5.87
2018-05-06T03:43:39.189Z,6.60
2018-05-06T03:46:06.703Z,6.20
2018-05-06T03:48:34.239Z,6.20
2018-05-06T03:51:02.551Z,6.40
2018-05-06T03:53:30.081Z,6.40
2018-05-06T03:59:23.226Z,7.40
2018-05-06T04:05:01.154Z,6.60
2018-05-06T04:07:28.694Z,7.17
2018-05-06T04:09:56.202Z,6.40
2018-05-06T04:12:24.477Z,6.33
2018-05-06T04:14:52.782Z,6.97
2018-05-06T04:17:20.346Z,5.83
2018-05-06T04:19:47.872Z,6.27
2018-05-06T04:22:16.172Z,6.37
2018-05-06T04:24:43.731Z,6.30
2018-05-06T04:27:11.241Z,6.03
2018-05-06T04:29:38.765Z,5.90
2018-05-06T04:32:06.313Z,6.57
2018-05-06T04:34:33.844Z,6.13
2018-05-06T04:37:01.374Z,6.23
2018-05-06T04:39:28.888Z,5.80
2018-05-06T04:41:57.172Z,5.87
2018-05-06T04:44:24.691Z,6.13
2018-05-06T04:46:52.212Z,5.97
2018-05-06T04:49:19.746Z,6.23
2018-05-06T04:51:47.280Z,6.10
2018-05-06T04:54:14.870Z,6.33
2018-05-06T04:56:42.388Z,6.13
2018-05-06T04:59:09.997Z,6.40
2018-05-06T05:01:37.516Z,6.03
2018-05-06T05:04:05.031Z,5.70
2018-05-06T05:06:32.564Z,5.67
2018-05-06T05:09:00.854Z,6.30
2018-05-06T05:11:28.420Z,5.70
2018-05-06T05:13:55.954Z,6.03
2018-05-06T05:16:24.237Z,5.83
2018-05-06T05:18:52.538Z,6.27
2018-05-06T05:21:20.078Z,5.63
2018-05-06T05:23:48.370Z,5.73
2018-05-06T05:26:15.885Z,6.53
2018-05-06T05:28:43.422Z,5.93
2018-05-06T05:31:10.949Z,5.80
2018-05-06T05:33:38.483Z,6.43
2018-05-06T05:36:06.792Z,5.40
2018-05-06T05:38:34.355Z,6.03
2018-05-06T05:41:01.877Z,5.47
2018-05-06T05:43:29.404Z,5.50
2018-05-06T05:45:56.913Z,6.00
2018-05-06T05:48:25.191Z,5.47
2018-05-06T05:50:53.472Z,6.10
2018-05-06T05:53:21.756Z,6.67
2018-05-06T05:55:49.272Z,5.80
2018-05-06T05:58:16.803Z,6.30
2018-05-06T06:00:44.332Z,5.50
2018-05-06T06:03:12.628Z,6.03
2018-05-06T06:05:40.194Z,5.97
2018-05-06T06:08:07.717Z,6.00
2018-05-06T06:10:36.001Z,6.20
2018-05-06T06:13:04.305Z,6.20
2018-05-06T06:15:31.865Z,6.03
2018-05-06T06:18:00.115Z,6.33
2018-05-06T06:20:27.696Z,6.17
2018-05-06T06:22:55.224Z,6.37
2018-05-06T06:25:23.514Z,6.23
2018-05-06T06:27:51.926Z,5.97
2018-05-06T06:30:19.453Z,6.30
2018-05-06T06:32:47.740Z,6.27
2018-05-06T06:35:15.320Z,6.33
2018-05-06T06:37:42.855Z,6.20
2018-05-06T06:40:12.170Z,7.07
2018-05-06T06:42:39.698Z,6.80
2018-05-06T06:45:07.222Z,5.70
2018-05-06T06:47:34.742Z,5.80
2018-05-06T06:50:02.299Z,6.60
2018-05-06T06:52:29.867Z,5.97
2018-05-06T06:54:57.390Z,6.13
2018-05-06T06:57:24.929Z,6.37
2018-05-06T06:59:52.437Z,6.20
2018-05-06T07:02:19.967Z,6.33
2018-05-06T07:04:47.571Z,6.30
2018-05-06T07:07:15.343Z,5.60
2018-05-06T07:09:42.900Z,6.37
2018-05-06T07:12:10.435Z,5.90
2018-05-06T07:14:38.715Z,6.87
2018-05-06T07:17:06.983Z,5.77
2018-05-06T07:19:35.284Z,6.70
2018-05-06T07:22:02.884Z,6.37
2018-05-06T07:24:30.390Z,6.37
2018-05-06T07:26:58.683Z,6.40
2018-05-06T07:29:26.260Z,6.37
2018-05-06T07:31:53.762Z,6.37
2018-05-06T07:34:21.287Z,6.40
2018-05-06T07:36:48.812Z,6.77
2018-05-06T07:39:17.220Z,6.80
2018-05-06T07:41:44.771Z,6.40
2018-05-06T07:44:12.298Z,6.73
2018-05-06T07:46:40.582Z,6.40
2018-05-06T07:49:08.981Z,6.60
2018-05-06T07:51:36.413Z,6.20
2018-05-06T07:54:04.834Z,6.60
2018-05-06T07:56:32.382Z,6.47
2018-05-06T07:59:00.095Z,6.40
2018-05-06T08:01:27.670Z,6.80
2018-05-06T08:03:56.223Z,6.23
2018-05-06T08:06:23.848Z,6.70
2018-05-06T08:08:51.359Z,6.97
2018-05-06T08:11:18.883Z,6.47
2018-05-06T08:13:46.434Z,6.40
2018-05-06T08:16:14.025Z,6.57
2018-05-06T08:18:42.270Z,6.20
2018-05-06T08:21:09.785Z,6.10
2018-05-06T08:23:38.079Z,6.23
2018-05-06T08:26:06.386Z,6.57
2018-05-06T08:28:33.902Z,5.87
2018-05-06T08:31:01.484Z,6.03
2018-05-06T08:33:28.980Z,6.17
2018-05-06T08:35:56.501Z,6.13
2018-05-06T08:38:29.427Z,6.40
2018-05-06T08:40:58.239Z,5.60
2018-05-06T08:43:25.996Z,4.87
2018-05-06T08:45:53.659Z,5.90
2018-05-06T08:48:21.198Z,4.53
2018-05-06T08:50:48.729Z,5.23
2018-05-06T08:53:17.014Z,4.50
2018-05-06T08:55:44.552Z,4.60
2018-05-06T08:58:12.852Z,5.37
2018-05-06T09:00:40.378Z,5.20
2018-05-06T09:03:08.711Z,4.70
2018-05-06T09:05:36.230Z,4.40
2018-05-06T09:08:04.518Z,3.77
2018-05-06T09:10:32.813Z,4.10
2018-05-06T09:13:00.391Z,4.87
2018-05-06T09:15:27.904Z,5.40
2018-05-06T09:17:56.185Z,4.40
2018-05-06T09:20:24.503Z,4.90
2018-05-06T09:22:52.036Z,5.43
2018-05-06T09:25:19.626Z,5.30
2018-05-06T09:27:47.258Z,5.33
2018-05-06T09:30:14.833Z,5.07
2018-05-06T09:32:42.365Z,5.00
2018-05-06T09:35:10.649Z,5.67
2018-05-06T09:37:38.198Z,5.63
2018-05-06T09:40:06.491Z,5.63
2018-05-06T09:42:34.067Z,5.97
2018-05-06T09:45:01.588Z,5.80
2018-05-06T09:47:29.899Z,6.13
2018-05-06T09:49:57.451Z,5.73
2018-05-06T09:52:25.009Z,6.10
2018-05-06T09:54:52.525Z,5.30
2018-05-06T09:57:20.085Z,6.03
2018-05-06T09:59:47.603Z,6.50
2018-05-06T10:02:15.129Z,5.83
2018-05-06T10:04:43.408Z,5.20
2018-05-06T10:07:11.708Z,5.50
2018-05-06T10:09:39.243Z,5.50
2018-05-06T10:12:07.553Z,5.33
2018-05-06T10:14:35.066Z,5.33
2018-05-06T10:17:02.716Z,4.90
2018-05-06T10:19:30.225Z,4.90
2018-05-06T10:21:57.744Z,5.20
2018-05-06T10:24:25.287Z,4.83
2018-05-06T10:26:52.915Z,5.60
2018-05-06T10:29:20.420Z,4.67
2018-05-06T10:31:47.994Z,4.33
2018-05-06T10:34:16.421Z,4.57
2018-05-06T10:36:43.972Z,5.10
2018-05-06T10:39:11.533Z,4.63
2018-05-06T10:41:39.049Z,4.30
2018-05-06T10:44:07.422Z,4.20
2018-05-06T10:46:34.903Z,4.90
2018-05-06T10:49:03.238Z,4.70
2018-05-06T10:51:30.722Z,4.50
2018-05-06T10:53:58.270Z,4.93
2018-05-06T10:56:25.796Z,4.00
2018-05-06T10:58:53.318Z,4.30
2018-05-06T11:01:21.627Z,4.20
2018-05-06T11:03:49.156Z,5.37
2018-05-06T11:06:17.446Z,4.80
2018-05-06T11:08:44.970Z,4.53
2018-05-06T11:11:13.304Z,5.00
2018-05-06T11:13:40.826Z,5.13
2018-05-06T11:16:09.112Z,4.43
2018-05-06T11:18:37.385Z,5.03
2018-05-06T11:21:05.666Z,5.10
2018-05-06T11:23:34.070Z,4.23
2018-05-06T11:26:01.588Z,4.77
2018-05-06T11:28:29.140Z,4.90
2018-05-06T11:30:56.687Z,4.90
2018-05-06T11:33:24.298Z,4.50
2018-05-06T11:35:51.878Z,4.33
2018-05-06T11:38:19.399Z,4.60
2018-05-06T11:40:47.699Z,4.70
2018-05-06T11:43:15.231Z,4.67
2018-05-06T11:45:43.562Z,4.30
2018-05-06T11:48:11.189Z,4.37
2018-05-06T11:50:38.632Z,4.60
2018-05-06T11:53:07.027Z,4.10
2018-05-06T11:55:34.560Z,4.27
2018-05-06T11:58:02.159Z,4.00
2018-05-06T12:00:29.681Z,4.37
2018-05-06T12:02:57.276Z,4.20
2018-05-06T12:05:24.816Z,4.17
2018-05-06T12:07:53.124Z,4.27
2018-05-06T12:10:20.644Z,4.13
2018-05-06T12:12:48.929Z,4.90
2018-05-06T12:15:17.227Z,4.20
2018-05-06T12:17:44.745Z,4.57
2018-05-06T12:20:13.027Z,3.63
2018-05-06T12:22:40.632Z,4.47
2018-05-06T12:25:08.154Z,4.37
2018-05-06T12:27:36.449Z,4.17
2018-05-06T12:30:04.845Z,4.00
2018-05-06T12:32:32.421Z,3.73
2018-05-06T12:34:59.963Z,3.90
2018-05-06T12:37:27.499Z,3.90
2018-05-06T12:39:55.887Z,3.80
2018-05-06T12:42:24.172Z,3.67
2018-05-06T12:44:51.685Z,3.83
2018-05-06T12:47:19.199Z,3.33
2018-05-06T12:49:46.713Z,3.70
2018-05-06T12:52:14.321Z,3.33
2018-05-06T12:54:41.826Z,3.63
2018-05-06T12:57:09.347Z,3.20
2018-05-06T12:59:36.891Z,3.70
2018-05-06T13:02:04.459Z,3.30
2018-05-06T13:04:31.974Z,3.30
2018-05-06T13:06:59.521Z,3.50
2018-05-06T13:09:27.139Z,3.33
2018-05-06T13:11:54.653Z,3.50
2018-05-06T13:14:23.695Z,3.50
2018-05-06T13:16:51.212Z,3.30
2018-05-06T13:19:18.734Z,3.00
2018-05-06T13:21:46.266Z,2.90
2018-05-06T13:24:13.830Z,2.70
2018-05-06T13:26:41.351Z,3.27
2018-05-06T13:29:08.949Z,2.80
2018-05-06T13:31:36.459Z,3.33
2018-05-06T13:34:03.992Z,3.00
2018-05-06T13:36:31.521Z,3.00
2018-05-06T13:38:59.049Z,2.90
2018-05-06T13:41:26.567Z,3.10
2018-05-06T13:43:54.087Z,3.27
2018-05-06T13:46:22.367Z,2.77
2018-05-06T13:48:50.646Z,3.10
2018-05-06T13:51:18.948Z,2.83
2018-05-06T13:53:46.483Z,2.80
2018-05-06T13:56:14.782Z,2.83
2018-05-06T13:58:42.310Z,3.10
2018-05-06T14:01:10.603Z,3.33
2018-05-06T14:03:38.902Z,2.97
2018-05-06T14:06:06.436Z,2.97
2018-05-06T14:08:34.733Z,3.07
2018-05-06T14:11:03.159Z,2.90
2018-05-06T14:13:30.766Z,2.80
2018-05-06T14:15:58.437Z,2.83
2018-05-06T14:18:25.925Z,2.80
2018-05-06T14:20:53.461Z,3.00
2018-05-06T14:23:21.014Z,3.00
2018-05-06T14:25:48.528Z,2.53
2018-05-06T14:28:16.081Z,2.43
2018-05-06T14:30:43.706Z,2.83
2018-05-06T14:33:11.261Z,3.10
2018-05-06T14:35:38.792Z,2.40
2018-05-06T14:38:07.083Z,2.77
2018-05-06T14:40:34.631Z,2.40
2018-05-06T14:43:03.042Z,2.47
2018-05-06T14:45:30.588Z,2.50
2018-05-06T14:48:10.099Z,2.33
2018-05-06T14:50:38.385Z,2.30
2018-05-06T14:53:06.686Z,2.23
2018-05-06T14:55:34.207Z,2.43
2018-05-06T14:58:01.712Z,2.23
2018-05-06T15:00:29.227Z,2.07
2018-05-06T15:02:56.830Z,2.30
2018-05-06T15:05:24.419Z,2.10
2018-05-06T15:07:52.656Z,2.30
2018-05-06T15:10:20.235Z,2.00
2018-05-06T15:12:47.741Z,1.80
2018-05-06T15:15:16.786Z,2.00
2018-05-06T15:17:44.303Z,2.30
2018-05-06T15:20:12.621Z,1.97
2018-05-06T15:22:40.150Z,2.17
2018-05-06T15:25:08.433Z,1.90
2018-05-06T15:27:36.736Z,2.00
2018-05-06T15:30:04.251Z,2.00
2018-05-06T15:32:31.785Z,1.73
2018-05-06T15:34:59.297Z,1.80
2018-05-06T15:37:26.859Z,1.50
2018-05-06T15:39:54.436Z,1.80
2018-05-06T15:42:21.947Z,1.80
2018-05-06T15:44:50.237Z,1.50
2018-05-06T15:47:18.582Z,1.70
2018-05-06T15:49:46.073Z,1.70
2018-05-06T15:52:14.348Z,1.90
2018-05-06T15:54:42.637Z,1.50
2018-05-06T15:57:10.927Z,1.63
2018-05-06T15:59:38.503Z,1.60
2018-05-06T16:02:06.983Z,1.60
2018-05-06T16:04:34.541Z,1.70
2018-05-06T16:07:02.094Z,1.40
2018-05-06T16:09:29.634Z,1.80
2018-05-06T16:11:57.971Z,1.43
2018-05-06T16:14:25.598Z,1.50
2018-05-06T16:16:53.149Z,1.40
2018-05-06T16:19:20.727Z,1.70
2018-05-06T16:21:48.239Z,1.60
2018-05-06T16:24:15.765Z,1.40
2018-05-06T16:26:43.334Z,1.50
2018-05-06T16:29:10.857Z,1.80
2018-05-06T16:31:38.403Z,1.30
2018-05-06T16:34:06.703Z,1.60
2018-05-06T16:36:34.242Z,1.70
2018-05-06T16:39:01.809Z,1.60
2018-05-06T16:41:29.332Z,1.50
2018-05-06T16:43:57.620Z,1.77
2018-05-06T16:46:25.921Z,1.60
2018-05-06T16:48:53.492Z,1.90
2018-05-06T16:51:21.055Z,1.40
2018-05-06T16:53:48.587Z,1.53
2018-05-06T16:56:16.874Z,1.30
2018-05-06T16:58:44.396Z,1.37
2018-05-06T17:01:12.006Z,1.87
2018-05-06T17:03:39.532Z,1.57
2018-05-06T17:06:07.813Z,1.70
2018-05-06T17:08:36.127Z,1.60
2018-05-06T17:11:03.679Z,1.50
2018-05-06T17:13:31.187Z,1.40
2018-05-06T17:15:58.712Z,1.47
2018-05-06T17:18:26.254Z,2.07
2018-05-06T17:20:53.770Z,1.30
2018-05-06T17:23:22.812Z,1.53
2018-05-06T17:25:50.371Z,1.33
2018-05-06T17:28:17.891Z,1.63
2018-05-06T17:30:46.192Z,1.50
2018-05-06T17:33:14.493Z,1.77
2018-05-06T17:35:42.045Z,1.90
2018-05-06T17:38:09.584Z,1.60
2018-05-06T17:40:37.907Z,1.87
2018-05-06T17:43:05.437Z,1.70
2018-05-06T17:45:32.968Z,1.60
2018-05-06T17:48:01.290Z,1.70
2018-05-06T17:50:29.753Z,1.50
2018-05-06T17:52:58.051Z,1.57
2018-05-06T17:55:25.581Z,1.60
2018-05-06T17:57:53.861Z,1.63
2018-05-06T18:00:22.163Z,1.90
2018-05-06T18:02:49.717Z,1.73
2018-05-06T18:05:17.286Z,1.50
2018-05-06T18:07:44.843Z,1.60
2018-05-06T18:10:12.363Z,1.50
2018-05-06T18:12:40.699Z,1.83
2018-05-06T18:15:08.224Z,1.70
2018-05-06T18:17:35.787Z,1.50
2018-05-06T18:20:03.419Z,1.73
2018-05-06T18:22:30.943Z,1.80
2018-05-06T18:24:58.448Z,1.73
2018-05-06T18:27:26.742Z,1.80
2018-05-06T18:29:54.268Z,1.73
2018-05-06T18:32:21.851Z,1.67
2018-05-06T18:34:50.136Z,1.70
2018-05-06T18:37:18.430Z,1.80
2018-05-06T18:39:45.983Z,2.27
2018-05-06T18:42:13.545Z,2.00
2018-05-06T18:44:41.076Z,1.90
2018-05-06T18:47:09.374Z,2.33
2018-05-06T18:49:36.939Z,2.10
2018-05-06T18:52:04.465Z,2.10
2018-05-06T18:54:31.981Z,2.00
2018-05-06T18:56:59.516Z,2.20
2018-05-06T18:59:27.042Z,2.20
2018-05-06T19:01:54.559Z,2.50
2018-05-06T19:04:22.113Z,2.60
2018-05-06T19:06:49.643Z,2.50
2018-05-06T19:09:17.939Z,2.40
2018-05-06T19:11:45.596Z,2.50
2018-05-06T19:14:13.069Z,2.47
2018-05-06T19:16:40.650Z,2.40
2018-05-06T19:19:08.183Z,2.90
2018-05-06T19:21:35.706Z,2.70
2018-05-06T19:24:03.999Z,2.53
2018-05-06T19:26:32.276Z,2.57
2018-05-06T19:29:00.566Z,2.60
2018-05-06T19:31:28.081Z,2.50
2018-05-06T19:33:55.688Z,2.87
2018-05-06T19:36:23.211Z,2.80
2018-05-06T19:38:50.727Z,2.60
2018-05-06T19:41:18.252Z,2.57
2018-05-06T19:43:46.547Z,2.90
2018-05-06T19:46:14.098Z,2.70
2018-05-06T19:48:41.747Z,2.87
2018-05-06T19:51:09.225Z,2.60
2018-05-06T19:53:36.756Z,2.40
2018-05-06T19:56:04.281Z,2.73
2018-05-06T19:58:31.812Z,2.63
2018-05-06T20:00:59.374Z,2.77
2018-05-06T20:03:26.920Z,2.83
2018-05-06T20:05:54.460Z,2.93
2018-05-06T20:08:22.738Z,2.80
2018-05-06T20:10:51.017Z,2.90
2018-05-06T20:13:19.322Z,2.80
2018-05-06T20:15:46.842Z,2.80
2018-05-06T20:18:14.450Z,2.90
2018-05-06T20:20:41.987Z,3.03
2018-05-06T20:23:09.509Z,2.90
2018-05-06T20:25:37.795Z,2.90
2018-05-06T20:28:05.346Z,2.70
2018-05-06T20:30:32.958Z,2.70
2018-05-06T20:33:00.497Z,3.10
2018-05-06T20:35:28.797Z,2.70
2018-05-06T20:37:56.328Z,2.67
2018-05-06T20:40:24.620Z,2.50
2018-05-06T20:42:52.145Z,2.70
2018-05-06T20:45:21.164Z,2.43
2018-05-06T20:47:49.454Z,2.67
2018-05-06T20:50:17.034Z,2.80
2018-05-06T20:52:44.556Z,2.73
2018-05-06T20:55:12.846Z,2.90
2018-05-06T20:57:40.428Z,2.93
2018-05-06T21:00:07.942Z,2.97
2018-05-06T21:02:35.463Z,2.67
2018-05-06T21:05:02.991Z,2.77
2018-05-06T21:07:30.505Z,3.00
2018-05-06T21:09:58.122Z,2.80
2018-05-06T21:12:25.659Z,2.73
2018-05-06T21:14:53.943Z,2.70
2018-05-06T21:17:22.327Z,2.50
2018-05-06T21:19:50.016Z,2.47
2018-05-06T21:22:17.561Z,2.93
2018-05-06T21:24:45.103Z,2.57
2018-05-06T21:27:13.373Z,2.40
2018-05-06T21:29:41.666Z,2.40
2018-05-06T21:32:09.237Z,2.70
2018-05-06T21:34:36.792Z,2.90
2018-05-06T21:37:04.363Z,3.17
2018-05-06T21:39:31.947Z,2.60
2018-05-06T21:41:59.432Z,2.80
2018-05-06T21:44:26.945Z,2.43
2018-05-06T21:46:54.477Z,2.90
2018-05-06T21:49:22.003Z,3.00
2018-05-06T21:51:49.519Z,2.93
2018-05-06T21:54:17.045Z,2.87
2018-05-06T21:56:45.342Z,3.00
2018-05-06T21:59:12.867Z,2.63
2018-05-06T22:01:40.379Z,2.57
2018-05-06T22:04:07.899Z,2.57
2018-05-06T22:06:36.193Z,2.67
2018-05-06T22:09:03.707Z,2.40
2018-05-06T22:11:31.242Z,2.97
2018-05-06T22:13:58.769Z,3.10
2018-05-06T22:16:26.289Z,2.90
2018-05-06T22:18:53.816Z,2.93
2018-05-06T22:21:21.350Z,2.57
2018-05-06T22:23:48.868Z,3.00
2018-05-06T22:26:16.488Z,3.23
2018-05-06T22:28:43.992Z,3.17
2018-05-06T22:31:11.592Z,2.80
2018-05-06T22:33:39.118Z,2.93
2018-05-06T22:36:06.634Z,2.90
2018-05-06T22:38:34.161Z,2.90
2018-05-06T22:41:02.465Z,3.20
2018-05-06T22:43:29.988Z,2.80
2018-05-06T22:45:58.408Z,2.73
2018-05-06T22:48:25.930Z,3.20
2018-05-06T22:50:54.233Z,3.10
2018-05-06T22:53:21.756Z,2.93
2018-05-06T22:55:50.053Z,3.00
2018-05-06T22:58:18.347Z,2.93
2018-05-06T23:00:45.877Z,2.70
2018-05-06T23:03:13.474Z,2.83
2018-05-06T23:05:41.032Z,2.90
2018-05-06T23:08:08.550Z,2.70
2018-05-06T23:10:36.845Z,3.10
2018-05-06T23:13:05.139Z,2.90
2018-05-06T23:15:32.699Z,3.37
2018-05-06T23:18:00.260Z,3.07
2018-05-06T23:20:27.777Z,3.07
2018-05-06T23:22:55.380Z,3.13
2018-05-06T23:25:23.015Z,2.60
2018-05-06T23:27:50.481Z,2.90
2018-05-06T23:30:18.773Z,2.80
2018-05-06T23:32:46.345Z,2.53
2018-05-06T23:35:13.893Z,2.77
2018-05-06T23:37:41.405Z,2.90
2018-05-06T23:40:08.932Z,2.80
2018-05-06T23:42:36.442Z,2.70
2018-05-06T23:45:04.719Z,2.83
2018-05-06T23:47:33.001Z,2.80
2018-05-06T23:50:01.303Z,2.57
2018-05-06T23:52:28.877Z,2.20
2018-05-06T23:54:56.428Z,2.60
2018-05-06T23:57:23.941Z,2.80
2018-05-06T23:59:52.237Z,2.70
